Flight Track Log - Related Links

Times and Time Zones

All times are in EDT time to prevent confusion due to time zone crossing. See the SWA2966 flight status page for this flight to view local times or setup timezone preferences in your user account.

Time Position Orientation Groundspeed Altitude Reporting Facility
EDT Latitude Longitude Course Direction KTS MPH feet Rate Location/Type
Fri 03:44:53 PM 37.7500 -122.2833 107° East 207 238 2,700  Level Northern Cal TRACON
Fri 03:45:53 PM 37.7333 -122.3500 252° West 251 289 5,400 2,894 Climbing Northern Cal TRACON
Fri 03:46:18 PM 37.7128 -122.3639 208° Southwest 250 288 6,800 3,800 Climbing Oakland Center
Fri 03:46:53 PM 37.6667 -122.3833 198° South 288 331 9,200 3,095 Climbing Northern Cal TRACON
Fri 03:47:53 PM 37.5833 -122.4000 189° South 342 394 11,700 2,318 Climbing Northern Cal TRACON
Fri 03:48:21 PM 37.5408 -122.4100 191° South 346 398 12,600 2,400 Climbing Oakland Center
Fri 03:49:23 PM 37.4450 -122.3444 151° Southeast 406 467 15,300 2,878 Climbing Oakland Center
Fri 03:50:00 PM 37.2407 -122.2461 107° East  Level FlightAware Approximate
Fri 03:50:24 PM 37.3653 -122.1967 124° Southeast 428 493 18,500  Level Oakland Center
Fri 03:51:26 PM 37.2883 -122.0739 128° Southeast 445 512 20,100 2,146 Climbing Oakland Center
Fri 03:52:27 PM 37.2089 -121.9469 128° Southeast 460 529 22,900 2,341 Climbing Oakland Center
Fri 03:53:29 PM 37.1278 -121.8167 128° Southeast 473 544 24,900 1,951 Climbing Oakland Center
Fri 03:54:30 PM 37.0403 -121.6825 129° Southeast 494 568 26,900 1,024 Climbing Oakland Center
Fri 03:55:32 PM 36.9550 -121.5456 128° Southeast 499 574 27,000 780 Climbing Oakland Center
Fri 03:56:33 PM 36.8703 -121.4061 127° Southeast 504 580 28,500 2,049 Climbing Oakland Center
Fri 03:57:35 PM 36.7736 -121.2597 129° Southeast 495 570 31,200 2,129 Climbing Oakland Center
Fri 03:58:37 PM 36.6869 -121.1250 129° Southeast 497 572 32,900 878 Climbing Oakland Center
Fri 03:59:38 PM 36.6017 -120.9894 128° Southeast 497 572 33,000 49 Climbing Oakland Center
Fri 04:00:40 PM 36.5136 -120.8569 130° Southeast 497 572 33,000 -49 Level Oakland Center
Fri 04:01:41 PM 36.4283 -120.7225 128° Southeast 496 571 32,900  Descending Oakland Center
Fri 04:02:43 PM 36.3239 -120.5617 129° Southeast 497 572 33,000  Climbing Oakland Center
Fri 04:03:44 PM 36.2358 -120.4261 129° Southeast 515 593 32,900 -49 Descending Oakland Center
Fri 04:04:46 PM 36.1489 -120.2931 129° Southeast 500 575 32,900  Level Oakland Center
Fri 04:05:47 PM 36.0625 -120.1625 129° Southeast 489 563 32,900 49 Level Oakland Center
Fri 04:06:49 PM 35.9769 -120.0378 130° Southeast 472 543 33,000 48 Climbing Oakland Center
Fri 04:07:51 PM 35.8889 -119.9047 129° Southeast 487 560 33,000  Level Oakland Center
Fri 04:08:52 PM 35.8025 -119.7736 129° Southeast 489 563 33,000  Level Oakland Center
Fri 04:09:54 PM 35.7150 -119.6425 129° Southeast 491 565 33,000  Level Oakland Center
Fri 04:10:55 PM 35.6269 -119.5119 130° Southeast 493 567 33,000  Level Oakland Center
Fri 04:11:57 PM 35.5206 -119.3564 130° Southeast 493 567 33,000  Level Oakland Center
Fri 04:12:58 PM 35.4322 -119.2261 130° Southeast 493 567 33,000 -488 Level Oakland Center
Fri 04:14:00 PM 35.3453 -119.0972 130° Southeast 492 566 32,000 -960 Descending Oakland Center
Fri 04:15:03 PM 35.2581 -118.9675 129° Southeast 493 567 31,000 -905 Descending Los Angeles Center
Fri 04:16:06 PM 35.1703 -118.8378 130° Southeast 495 570 30,100 -912 Descending Los Angeles Center
Fri 04:17:08 PM 35.0783 -118.7081 131° Southeast 501 577 29,100 -823 Descending Los Angeles Center
Fri 04:18:10 PM 34.9894 -118.5764 129° Southeast 504 580 28,400 -823 Descending Los Angeles Center
Fri 04:19:12 PM 34.8936 -118.4389 130° Southeast 493 567 27,400 -1,210 Descending Los Angeles Center
Fri 04:20:14 PM 34.8064 -118.3136 130° Southeast 488 562 25,900 -1,790 Descending Los Angeles Center
Fri 04:21:16 PM 34.7056 -118.1714 131° Southeast 469 540 23,700 -1,887 Descending Los Angeles Center
Fri 04:22:18 PM 34.6236 -118.0500 129° Southeast 468 539 22,000 -1,935 Descending Los Angeles Center
Fri 04:23:20 PM 34.5636 -117.9183 119° Southeast 453 521 19,700 -2,160 Descending Los Angeles Center
Fri 04:24:23 PM 34.5061 -117.7925 119° Southeast 435 501 17,500 -2,304 Descending Los Angeles Center
Fri 04:25:25 PM 34.4497 -117.6706 119° Southeast 421 484 14,900 -1,742 Descending Los Angeles Center
Fri 04:26:27 PM 34.3889 -117.5378 119° Southeast 374 430 13,900 -1,065 Descending Los Angeles Center
Fri 04:27:29 PM 34.3481 -117.4456 118° Southeast 335 386 12,700 -1,355 Descending Los Angeles Center
Fri 04:28:31 PM 34.3022 -117.3508 120° Southeast 326 375 11,100 -1,452 Descending Los Angeles Center
Fri 04:29:33 PM 34.2203 -117.3183 162° South 309 356 9,700 -1,161 Descending Los Angeles Center
Fri 04:30:35 PM 34.1219 -117.2903 167° South 295 339 8,700 -617 Descending Los Angeles Center
Fri 04:31:20 PM 34.0833 -117.3000 192° South 218 251 8,600 -1,189 Descending Southern California TRACON
Fri 04:32:21 PM 34.0500 -117.3333 220° Southwest 172 198 6,600 -1,983 Descending Southern California TRACON
Fri 04:33:21 PM 34.0500 -117.4000 270° West 163 188 4,600 -1,750 Descending Southern California TRACON
Fri 04:34:21 PM 34.0500 -117.4500 270° West 152 175 3,100 -1,150 Descending Southern California TRACON
Fri 04:35:21 PM 34.0500 -117.5000 270° West 146 168 2,300 -800 Descending Southern California TRACON
Fri 04:36:21 PM 34.0500 -117.5500 270° West 145 167 1,500 -800 Descending Southern California TRACON
Fri 04:38:00 PM 34.0500 -117.6000 270° West  Level FlightAware Approximate
Fri 04:45:00 PM 34.0560 -117.6012 270° West  Level Estimated
Fri 04:46:00 PM 34.0500 -117.6000 270° West  Level FlightAware Approximate

Login

Don't have an account? Register now (free) for customized features, flight alerts, and more!